createdAt,value
2022-08-20T00:01:06.050Z,18.15
2022-08-20T00:03:37.073Z,17.35
2022-08-20T00:06:05.781Z,17.80
2022-08-20T00:08:32.232Z,18.00
2022-08-20T00:11:00.344Z,19.05
2022-08-20T00:13:31.925Z,16.95
2022-08-20T00:15:59.529Z,17.95
2022-08-20T00:18:25.971Z,16.33
2022-08-20T00:20:55.597Z,16.10
2022-08-20T00:23:22.922Z,15.82
2022-08-20T00:25:50.040Z,13.75
2022-08-20T00:28:16.697Z,14.65
2022-08-20T00:30:45.155Z,13.35
2022-08-20T00:33:16.731Z,12.73
2022-08-20T00:35:48.350Z,11.60
2022-08-20T00:38:15.078Z,11.90
2022-08-20T00:40:45.576Z,11.80
2022-08-20T00:43:46.003Z,13.10
2022-08-20T00:46:22.042Z,10.55
2022-08-20T00:48:58.592Z,11.02
2022-08-20T00:51:57.583Z,10.18
2022-08-20T00:54:28.566Z,11.88
2022-08-20T00:57:05.499Z,10.23
2022-08-20T00:59:34.680Z,9.02
2022-08-20T01:02:01.954Z,10.48
2022-08-20T01:04:31.391Z,10.13
2022-08-20T01:06:57.795Z,10.95
2022-08-20T01:09:50.286Z,12.23
2022-08-20T01:12:11.705Z,10.25
2022-08-20T01:14:45.785Z,9.02
2022-08-20T01:17:19.612Z,9.93
2022-08-20T01:19:55.281Z,7.72
2022-08-20T01:22:58.361Z,8.75
2022-08-20T01:25:50.270Z,12.10
2022-08-20T01:28:24.443Z,9.13
2022-08-20T01:30:51.681Z,10.18
2022-08-20T01:33:20.345Z,9.00
2022-08-20T01:35:47.348Z,8.43
2022-08-20T01:38:14.110Z,8.82
2022-08-20T01:40:40.570Z,8.68
2022-08-20T01:43:08.880Z,9.65
2022-08-20T01:45:36.523Z,11.57
2022-08-20T01:48:06.735Z,10.93
2022-08-20T01:50:35.913Z,10.75
2022-08-20T01:53:18.650Z,10.85
2022-08-20T01:55:45.165Z,9.15
2022-08-20T01:58:11.681Z,8.23
2022-08-20T02:00:38.210Z,9.68
2022-08-20T02:03:05.078Z,7.97
2022-08-20T02:05:33.313Z,8.45
2022-08-20T02:08:00.413Z,9.70
2022-08-20T02:10:27.695Z,8.23
2022-08-20T02:12:59.608Z,8.32
2022-08-20T02:15:34.727Z,7.40
2022-08-20T02:18:10.489Z,11.10
2022-08-20T02:20:37.763Z,7.50
2022-08-20T02:23:06.036Z,6.00
2022-08-20T02:25:35.506Z,6.75
2022-08-20T02:28:05.866Z,8.48
2022-08-20T02:30:40.986Z,7.60
2022-08-20T02:33:10.275Z,6.20
2022-08-20T02:35:39.061Z,6.93
2022-08-20T02:38:05.627Z,7.70
2022-08-20T02:40:32.422Z,6.18
2022-08-20T02:43:00.552Z,5.35
2022-08-20T02:45:28.375Z,7.38
2022-08-20T02:47:56.905Z,5.65
2022-08-20T02:50:25.768Z,6.15
2022-08-20T02:52:53.868Z,6.43
2022-08-20T02:55:27.317Z,6.30
2022-08-20T02:58:00.063Z,6.15
2022-08-20T03:00:37.700Z,8.73
2022-08-20T03:03:06.918Z,7.50
2022-08-20T03:05:35.131Z,6.07
2022-08-20T03:08:03.920Z,8.27
2022-08-20T03:10:34.029Z,8.20
2022-08-20T03:13:02.515Z,7.15
2022-08-20T03:15:30.868Z,7.28
2022-08-20T03:17:57.648Z,5.80
2022-08-20T03:20:25.268Z,8.25
2022-08-20T03:22:52.141Z,6.10
2022-08-20T03:25:18.671Z,8.05
2022-08-20T03:27:45.829Z,7.95
2022-08-20T03:30:14.378Z,7.47
2022-08-20T03:32:41.523Z,6.95
2022-08-20T03:35:11.034Z,5.93
2022-08-20T03:37:38.454Z,7.80
2022-08-20T03:40:15.581Z,10.27
2022-08-20T03:42:43.204Z,7.88
2022-08-20T03:45:13.040Z,7.57
2022-08-20T03:47:42.478Z,7.63
2022-08-20T03:50:10.342Z,10.82
2022-08-20T03:52:49.554Z,12.07
2022-08-20T03:55:16.063Z,14.90
2022-08-20T03:57:49.363Z,16.92
2022-08-20T04:00:21.934Z,20.50
2022-08-20T04:02:48.915Z,10.77
2022-08-20T04:05:15.512Z,12.73
2022-08-20T04:07:42.802Z,11.70
2022-08-20T04:10:10.977Z,21.80
2022-08-20T04:12:40.730Z,13.23
2022-08-20T04:15:17.500Z,16.38
2022-08-20T04:17:48.422Z,20.92
2022-08-20T04:20:19.082Z,18.70
2022-08-20T04:22:50.817Z,17.35
2022-08-20T04:25:29.521Z,23.55
2022-08-20T04:28:00.427Z,14.57
2022-08-20T04:30:27.961Z,16.52
2022-08-20T04:32:55.283Z,19.50
2022-08-20T04:35:24.487Z,19.88
2022-08-20T04:37:58.825Z,19.70
2022-08-20T04:40:43.980Z,17.02
2022-08-20T04:43:10.506Z,14.82
2022-08-20T04:45:39.943Z,22.83
2022-08-20T04:48:10.560Z,16.70
2022-08-20T04:50:43.651Z,14.93
2022-08-20T04:53:12.870Z,12.32
2022-08-20T04:55:42.846Z,11.90
2022-08-20T04:58:16.695Z,13.25
2022-08-20T05:00:45.912Z,14.93
2022-08-20T05:03:12.464Z,13.82
2022-08-20T05:05:39.376Z,15.88
2022-08-20T05:08:06.199Z,16.80
2022-08-20T05:10:47.014Z,14.27
2022-08-20T05:13:13.551Z,14.85
2022-08-20T05:15:39.981Z,14.05
2022-08-20T05:18:08.637Z,14.80
2022-08-20T05:20:40.958Z,12.38
2022-08-20T05:23:10.192Z,13.63
2022-08-20T05:25:38.123Z,13.38
2022-08-20T05:28:12.588Z,19.23
2022-08-20T05:30:44.506Z,16.98
2022-08-20T05:33:16.782Z,14.30
2022-08-20T05:35:43.395Z,11.38
2022-08-20T05:38:12.969Z,13.18
2022-08-20T05:40:40.880Z,18.83
2022-08-20T05:43:08.394Z,12.27
2022-08-20T05:45:39.551Z,16.42
2022-08-20T05:48:16.097Z,14.52
2022-08-20T05:50:44.818Z,17.38
2022-08-20T05:53:11.900Z,21.25
2022-08-20T05:55:39.729Z,17.48
2022-08-20T05:58:14.012Z,19.98
2022-08-20T06:00:40.478Z,14.10
2022-08-20T06:03:25.437Z,13.48
2022-08-20T06:05:51.964Z,20.83
2022-08-20T06:08:18.587Z,14.43
2022-08-20T06:10:45.256Z,16.73
2022-08-20T06:13:14.037Z,18.00
2022-08-20T06:15:41.211Z,15.52
2022-08-20T06:18:27.499Z,15.30
2022-08-20T06:20:56.763Z,11.85
2022-08-20T06:23:25.189Z,12.57
2022-08-20T06:25:52.465Z,16.77
2022-08-20T06:28:18.962Z,13.32
2022-08-20T06:30:45.450Z,17.00
2022-08-20T06:33:12.139Z,20.73
2022-08-20T06:35:38.661Z,13.95
2022-08-20T06:38:05.822Z,16.08
2022-08-20T06:40:34.024Z,17.75
2022-08-20T06:43:01.146Z,13.65
2022-08-20T06:45:31.789Z,13.45
2022-08-20T06:48:01.670Z,15.00
2022-08-20T06:50:43.184Z,13.43
2022-08-20T06:53:18.291Z,13.55
2022-08-20T06:55:54.782Z,16.50
2022-08-20T06:58:36.686Z,13.35
2022-08-20T07:01:10.394Z,13.60
2022-08-20T07:03:42.143Z,12.85
2022-08-20T07:06:22.090Z,15.00
2022-08-20T07:08:48.556Z,14.25
2022-08-20T07:11:15.195Z,16.55
2022-08-20T07:13:41.932Z,13.48
2022-08-20T07:16:08.941Z,12.70
2022-08-20T07:18:36.328Z,14.55
2022-08-20T07:21:03.341Z,10.75
2022-08-20T07:23:31.455Z,9.98
2022-08-20T07:25:58.399Z,12.30
2022-08-20T07:28:28.737Z,12.85
2022-08-20T07:31:15.945Z,11.35
2022-08-20T07:33:44.288Z,8.48
2022-08-20T07:36:12.213Z,11.73
2022-08-20T07:38:38.644Z,10.43
2022-08-20T07:41:09.879Z,9.00
2022-08-20T07:43:36.494Z,7.63
2022-08-20T07:46:08.737Z,9.95
2022-08-20T07:48:39.703Z,8.40
2022-08-20T07:51:07.694Z,10.13
2022-08-20T07:53:36.675Z,6.95
2022-08-20T07:56:10.038Z,9.60
2022-08-20T07:58:41.547Z,5.70
2022-08-20T08:01:08.211Z,10.23
2022-08-20T08:03:39.907Z,7.68
2022-08-20T08:06:29.310Z,8.60
2022-08-20T08:09:01.756Z,7.38
2022-08-20T08:11:28.373Z,3.55
2022-08-20T08:13:54.742Z,7.90
2022-08-20T08:16:21.876Z,5.28
2022-08-20T08:18:52.098Z,6.22
2022-08-20T08:21:18.968Z,6.28
2022-08-20T08:23:45.702Z,4.50
2022-08-20T08:26:15.898Z,8.32
2022-08-20T08:28:45.851Z,8.88
2022-08-20T08:31:13.079Z,5.20
2022-08-20T08:33:40.752Z,6.50
2022-08-20T08:36:13.107Z,11.20
2022-08-20T08:38:42.856Z,5.80
2022-08-20T08:41:26.477Z,5.18
2022-08-20T08:43:59.631Z,4.65
2022-08-20T08:46:27.699Z,3.45
2022-08-20T08:48:57.653Z,3.45
2022-08-20T08:51:39.577Z,6.75
2022-08-20T08:54:08.457Z,10.15
2022-08-20T08:56:35.777Z,6.80
2022-08-20T08:59:07.642Z,7.00
2022-08-20T09:01:55.614Z,7.72
2022-08-20T09:04:32.565Z,8.57
2022-08-20T09:07:01.210Z,5.05
2022-08-20T09:09:38.556Z,6.03
2022-08-20T09:12:08.692Z,4.50
2022-08-20T09:14:35.845Z,5.50
2022-08-20T09:17:03.071Z,5.68
2022-08-20T09:19:29.912Z,7.45
2022-08-20T09:21:56.548Z,4.57
2022-08-20T09:24:23.060Z,6.00
2022-08-20T09:26:49.510Z,8.32
2022-08-20T09:29:16.251Z,6.22
2022-08-20T09:31:43.527Z,9.07
2022-08-20T09:34:11.588Z,6.82
2022-08-20T09:36:38.051Z,5.63
2022-08-20T09:39:04.651Z,6.68
2022-08-20T09:41:34.310Z,6.78
2022-08-20T09:44:01.579Z,6.80
2022-08-20T09:46:28.096Z,7.28
2022-08-20T09:48:54.974Z,6.32
2022-08-20T09:51:22.534Z,9.20
2022-08-20T09:53:49.356Z,8.30
2022-08-20T09:56:16.899Z,9.65
2022-08-20T09:58:48.867Z,7.97
2022-08-20T10:01:18.424Z,7.18
2022-08-20T10:03:48.630Z,5.68
2022-08-20T10:06:17.847Z,6.93
2022-08-20T10:08:44.432Z,11.73
2022-08-20T10:11:11.724Z,6.32
2022-08-20T10:13:38.132Z,7.00
2022-08-20T10:16:04.991Z,10.52
2022-08-20T10:18:31.530Z,10.75
2022-08-20T10:20:58.007Z,8.57
2022-08-20T10:23:24.369Z,14.38
2022-08-20T10:25:50.868Z,7.05
2022-08-20T10:28:17.302Z,10.07
2022-08-20T10:30:45.071Z,9.50
2022-08-20T10:33:11.492Z,9.82
2022-08-20T10:35:38.390Z,8.25
2022-08-20T10:38:04.779Z,7.15
2022-08-20T10:40:31.227Z,10.13
2022-08-20T10:42:57.785Z,8.40
2022-08-20T10:45:25.699Z,8.98
2022-08-20T10:47:52.287Z,7.45
2022-08-20T10:50:19.915Z,8.77
2022-08-20T10:52:47.062Z,5.70
2022-08-20T10:55:13.632Z,9.75
2022-08-20T10:57:41.593Z,5.85
2022-08-20T11:00:12.957Z,7.68
2022-08-20T11:02:39.473Z,6.63
2022-08-20T11:05:07.796Z,10.88
2022-08-20T11:07:55.129Z,7.22
2022-08-20T11:10:27.035Z,9.63
2022-08-20T11:12:53.599Z,4.88
2022-08-20T11:15:20.089Z,7.53
2022-08-20T11:17:46.925Z,6.00
2022-08-20T11:20:16.307Z,10.15
2022-08-20T11:22:42.815Z,12.23
2022-08-20T11:25:09.617Z,12.05
2022-08-20T11:27:39.735Z,8.38
2022-08-20T11:30:09.968Z,7.30
2022-08-20T11:32:36.799Z,9.98
2022-08-20T11:35:18.795Z,7.30
2022-08-20T11:37:54.020Z,10.90
2022-08-20T11:40:21.338Z,10.05
2022-08-20T11:43:12.591Z,7.93
2022-08-20T11:45:37.368Z,7.50
2022-08-20T11:48:05.089Z,7.32
2022-08-20T11:50:32.075Z,10.02
2022-08-20T11:52:58.735Z,9.32
2022-08-20T11:55:30.056Z,6.90
2022-08-20T11:58:00.179Z,12.18
2022-08-20T12:00:33.206Z,10.05
2022-08-20T12:03:05.272Z,7.38
2022-08-20T12:05:32.688Z,7.68
2022-08-20T12:08:02.440Z,11.00
2022-08-20T12:10:30.184Z,12.40
2022-08-20T12:12:57.486Z,7.20
2022-08-20T12:15:26.680Z,12.07
2022-08-20T12:17:53.520Z,8.80
2022-08-20T12:20:20.192Z,6.05
2022-08-20T12:22:46.787Z,7.75
2022-08-20T12:25:13.646Z,9.18
2022-08-20T12:27:41.760Z,6.55
2022-08-20T12:30:12.045Z,7.75
2022-08-20T12:32:38.612Z,7.97
2022-08-20T12:35:06.736Z,7.90
2022-08-20T12:37:33.588Z,7.82
2022-08-20T12:40:01.849Z,6.25
2022-08-20T12:42:31.751Z,6.28
2022-08-20T12:44:59.418Z,8.82
2022-08-20T12:47:32.155Z,6.53
2022-08-20T12:50:10.028Z,5.80
2022-08-20T12:52:37.112Z,5.03
2022-08-20T12:55:04.659Z,6.88
2022-08-20T12:57:39.638Z,5.88
2022-08-20T13:00:16.915Z,5.22
2022-08-20T13:02:45.036Z,7.70
2022-08-20T13:05:13.252Z,6.65
2022-08-20T13:07:41.124Z,4.30
2022-08-20T13:10:11.813Z,5.35
2022-08-20T13:12:38.254Z,6.30
2022-08-20T13:15:05.179Z,4.07
2022-08-20T13:17:38.005Z,8.15
2022-08-20T13:20:07.845Z,6.90
2022-08-20T13:22:35.443Z,7.15
2022-08-20T13:25:02.008Z,6.25
2022-08-20T13:27:28.631Z,3.72
2022-08-20T13:29:58.741Z,11.05
2022-08-20T13:32:26.180Z,3.67
2022-08-20T13:34:52.577Z,5.40
2022-08-20T13:37:25.369Z,5.22
2022-08-20T13:39:56.363Z,11.18
2022-08-20T13:42:23.397Z,5.25
2022-08-20T13:44:49.947Z,5.43
2022-08-20T13:47:25.654Z,9.18
2022-08-20T13:49:58.290Z,8.27
2022-08-20T13:52:25.460Z,4.57
2022-08-20T13:54:52.410Z,7.28
2022-08-20T13:57:20.560Z,8.25
2022-08-20T13:59:49.528Z,15.85
2022-08-20T14:02:17.397Z,7.03
2022-08-20T14:04:43.961Z,9.32
2022-08-20T14:07:19.968Z,9.23
2022-08-20T14:09:53.868Z,9.75
2022-08-20T14:12:23.154Z,6.00
2022-08-20T14:14:51.196Z,11.02
2022-08-20T14:17:19.651Z,6.57
2022-08-20T14:19:48.511Z,12.02
2022-08-20T14:22:18.035Z,10.57
2022-08-20T14:24:47.272Z,8.00
2022-08-20T14:27:15.726Z,12.45
2022-08-20T14:29:44.522Z,9.18
2022-08-20T14:32:11.498Z,5.25
2022-08-20T14:34:38.909Z,8.63
2022-08-20T14:37:15.907Z,5.70
2022-08-20T14:39:44.886Z,14.63
2022-08-20T14:42:11.773Z,8.98
2022-08-20T14:44:38.389Z,7.63
2022-08-20T14:47:23.827Z,13.38
2022-08-20T14:49:52.642Z,5.35
2022-08-20T14:52:20.732Z,4.18
2022-08-20T14:54:48.078Z,8.80
2022-08-20T14:57:16.874Z,5.05
2022-08-20T14:59:44.167Z,9.02
2022-08-20T15:02:12.825Z,4.00
2022-08-20T15:04:40.867Z,4.97
2022-08-20T15:07:14.702Z,4.57
2022-08-20T15:09:43.851Z,4.60
2022-08-20T15:12:10.334Z,3.60
2022-08-20T15:14:39.281Z,4.72
2022-08-20T15:17:06.166Z,5.18
2022-08-20T15:19:32.910Z,4.95
2022-08-20T15:21:59.345Z,6.32
2022-08-20T15:24:25.863Z,7.75
2022-08-20T15:26:52.328Z,4.78
2022-08-20T15:29:23.136Z,5.75
2022-08-20T15:31:50.293Z,3.75
2022-08-20T15:34:18.059Z,4.80
2022-08-20T15:36:45.347Z,4.65
2022-08-20T15:39:11.835Z,5.20
2022-08-20T15:41:38.305Z,8.95
2022-08-20T15:44:04.946Z,5.75
2022-08-20T15:46:36.271Z,6.50
2022-08-20T15:49:11.416Z,7.53
2022-08-20T15:51:47.297Z,5.95
2022-08-20T15:54:19.125Z,10.25
2022-08-20T15:57:07.572Z,8.90
2022-08-20T16:00:11.479Z,9.98
2022-08-20T16:03:11.706Z,4.85
2022-08-20T16:05:59.479Z,4.47
2022-08-20T16:08:47.782Z,5.80
2022-08-20T16:11:29.390Z,6.70
2022-08-20T16:14:08.803Z,3.20
2022-08-20T16:16:42.546Z,4.32
2022-08-20T16:19:14.934Z,3.58
2022-08-20T16:21:44.575Z,6.60
2022-08-20T16:24:13.869Z,8.68
2022-08-20T16:26:43.639Z,6.53
2022-08-20T16:29:12.033Z,4.28
2022-08-20T16:32:00.460Z,3.45
2022-08-20T16:34:40.399Z,3.05
2022-08-20T16:37:25.281Z,7.25
2022-08-20T16:40:00.030Z,5.60
2022-08-20T16:42:33.270Z,6.28
2022-08-20T16:45:00.336Z,2.70
2022-08-20T16:47:30.760Z,7.05
2022-08-20T16:50:11.939Z,6.97
2022-08-20T16:52:43.489Z,3.35
2022-08-20T16:55:10.803Z,6.82
2022-08-20T16:57:37.447Z,2.85
2022-08-20T17:00:22.156Z,2.17
2022-08-20T17:02:57.926Z,6.00
2022-08-20T17:05:29.190Z,3.80
2022-08-20T17:08:02.181Z,4.03
2022-08-20T17:10:33.085Z,2.75
2022-08-20T17:13:05.072Z,4.00
2022-08-20T17:15:35.491Z,5.03
2022-08-20T17:18:24.463Z,4.00
2022-08-20T17:20:51.687Z,2.10
2022-08-20T17:23:20.632Z,2.55
2022-08-20T17:26:00.227Z,4.30
2022-08-20T17:28:29.831Z,2.58
2022-08-20T17:30:58.554Z,3.22
2022-08-20T17:33:30.263Z,5.35
2022-08-20T17:36:21.302Z,7.03
2022-08-20T17:38:51.703Z,5.57
2022-08-20T17:41:23.163Z,4.45
2022-08-20T17:44:07.901Z,5.65
2022-08-20T17:46:41.526Z,3.95
2022-08-20T17:49:12.641Z,4.30
2022-08-20T17:51:52.950Z,4.90
2022-08-20T17:54:25.741Z,4.13
2022-08-20T17:56:57.879Z,5.22
2022-08-20T17:59:59.822Z,4.68
2022-08-20T18:02:16.760Z,3.33
2022-08-20T18:04:44.644Z,5.30
2022-08-20T18:07:11.018Z,6.22
2022-08-20T18:09:55.193Z,4.70
2022-08-20T18:12:49.725Z,7.47
2022-08-20T18:15:29.674Z,4.00
2022-08-20T18:18:17.759Z,3.03
2022-08-20T18:21:10.820Z,4.00
2022-08-20T18:23:42.926Z,4.72
2022-08-20T18:26:31.820Z,2.60
2022-08-20T18:29:03.776Z,4.40
2022-08-20T18:31:33.997Z,4.40
2022-08-20T18:34:14.732Z,5.57
2022-08-20T18:36:41.513Z,7.13
2022-08-20T18:39:23.203Z,7.25
2022-08-20T18:42:01.985Z,9.15
2022-08-20T18:44:37.553Z,7.10
2022-08-20T18:47:06.032Z,4.20
2022-08-20T18:49:37.372Z,4.30
2022-08-20T18:52:11.209Z,3.05
2022-08-20T18:54:40.880Z,4.82
2022-08-20T18:57:19.060Z,3.42
2022-08-20T18:59:53.687Z,3.30
2022-08-20T19:02:25.661Z,2.85
2022-08-20T19:05:02.320Z,3.60
2022-08-20T19:07:47.953Z,8.05
2022-08-20T19:11:05.800Z,9.05
2022-08-20T19:13:48.296Z,4.68
2022-08-20T19:16:40.328Z,4.55
2022-08-20T19:19:18.764Z,6.72
2022-08-20T19:21:45.395Z,5.20
2022-08-20T19:24:17.964Z,5.35
2022-08-20T19:26:49.847Z,7.55
2022-08-20T19:29:22.813Z,5.60
2022-08-20T19:31:49.249Z,4.20
2022-08-20T19:34:25.551Z,7.45
2022-08-20T19:36:58.698Z,3.25
2022-08-20T19:39:30.300Z,4.50
2022-08-20T19:42:03.883Z,4.32
2022-08-20T19:44:41.439Z,4.07
2022-08-20T19:47:20.391Z,2.78
2022-08-20T19:50:04.811Z,4.75
2022-08-20T19:52:51.661Z,6.53
2022-08-20T19:55:38.869Z,4.13
2022-08-20T19:58:11.044Z,3.38
2022-08-20T20:00:48.533Z,5.07
2022-08-20T20:03:22.880Z,5.55
2022-08-20T20:05:58.427Z,3.13
2022-08-20T20:08:30.368Z,6.18
2022-08-20T20:10:59.831Z,5.10
2022-08-20T20:13:27.747Z,5.78
2022-08-20T20:16:02.707Z,7.22
2022-08-20T20:18:34.024Z,2.55
2022-08-20T20:21:20.471Z,5.25
2022-08-20T20:23:54.000Z,6.30
2022-08-20T20:26:21.026Z,3.45
2022-08-20T20:28:51.097Z,5.35
2022-08-20T20:31:24.144Z,5.03
2022-08-20T20:33:56.488Z,4.45
2022-08-20T20:36:40.287Z,10.73
2022-08-20T20:39:14.296Z,13.40
2022-08-20T20:41:53.015Z,8.48
2022-08-20T20:44:28.560Z,12.20
2022-08-20T20:47:00.224Z,19.08
2022-08-20T20:49:28.305Z,16.67
2022-08-20T20:52:01.348Z,21.23
2022-08-20T20:54:29.687Z,24.00
2022-08-20T20:57:05.718Z,23.25
2022-08-20T20:59:35.249Z,20.98
2022-08-20T21:02:02.875Z,20.55
2022-08-20T21:04:29.433Z,16.17
2022-08-20T21:06:58.807Z,18.45
2022-08-20T21:09:25.647Z,15.07
2022-08-20T21:11:52.625Z,14.32
2022-08-20T21:14:19.139Z,14.38
2022-08-20T21:16:45.795Z,16.70
2022-08-20T21:19:13.419Z,17.15
2022-08-20T21:21:40.521Z,16.23
2022-08-20T21:24:07.843Z,16.13
2022-08-20T21:26:34.814Z,13.23
2022-08-20T21:29:01.366Z,14.55
2022-08-20T21:31:33.721Z,13.88
2022-08-20T21:34:00.420Z,11.10
2022-08-20T21:36:27.318Z,11.40
2022-08-20T21:38:53.795Z,12.00
2022-08-20T21:41:29.590Z,14.48
2022-08-20T21:43:58.780Z,16.23
2022-08-20T21:46:25.972Z,14.40
2022-08-20T21:48:52.404Z,13.35
2022-08-20T21:51:19.028Z,12.57
2022-08-20T21:53:45.476Z,13.15
2022-08-20T21:56:12.201Z,13.15
2022-08-20T21:58:39.546Z,9.00
2022-08-20T22:01:11.259Z,10.77
2022-08-20T22:03:40.958Z,9.80
2022-08-20T22:06:10.152Z,9.35
2022-08-20T22:08:36.570Z,12.90
2022-08-20T22:11:04.117Z,8.95
2022-08-20T22:13:33.629Z,11.07
2022-08-20T22:16:06.454Z,10.57
2022-08-20T22:18:33.839Z,9.30
2022-08-20T22:21:00.500Z,8.60
2022-08-20T22:23:27.318Z,10.95
2022-08-20T22:25:54.064Z,9.65
2022-08-20T22:28:21.429Z,10.13
2022-08-20T22:30:47.835Z,12.63
2022-08-20T22:33:19.112Z,12.60
2022-08-20T22:35:49.750Z,14.73
2022-08-20T22:38:17.104Z,14.23
2022-08-20T22:40:44.223Z,16.10
2022-08-20T22:43:11.198Z,13.93
2022-08-20T22:45:39.102Z,13.77
2022-08-20T22:48:06.774Z,15.85
2022-08-20T22:50:33.186Z,15.07
2022-08-20T22:53:01.349Z,17.75
2022-08-20T22:55:27.858Z,15.38
2022-08-20T22:57:54.923Z,14.63
2022-08-20T23:00:24.150Z,12.30
2022-08-20T23:02:55.040Z,13.38
2022-08-20T23:05:23.655Z,15.00
2022-08-20T23:07:53.974Z,15.70
2022-08-20T23:10:21.302Z,14.20
2022-08-20T23:12:48.073Z,13.80
2022-08-20T23:15:14.614Z,14.43
2022-08-20T23:17:41.442Z,13.10
2022-08-20T23:20:11.252Z,13.45
2022-08-20T23:22:37.811Z,13.43
2022-08-20T23:25:06.226Z,12.43
2022-08-20T23:27:39.473Z,12.05
2022-08-20T23:30:06.805Z,15.38
2022-08-20T23:32:33.231Z,11.60
2022-08-20T23:34:59.708Z,10.32
2022-08-20T23:37:26.246Z,11.20
2022-08-20T23:39:52.732Z,14.00
2022-08-20T23:42:19.195Z,14.15
2022-08-20T23:44:45.641Z,12.38
2022-08-20T23:47:18.031Z,9.80
2022-08-20T23:49:45.279Z,10.40
2022-08-20T23:52:11.803Z,12.32
2022-08-20T23:54:38.373Z,13.63
2022-08-20T23:57:08.166Z,10.93
2022-08-20T23:59:35.188Z,13.52
